Time;durP1;ratioP1;P1;durP2;ratioP2;P2;SDS_P1;SDS_P2;PMS_P1;PMS_P2;Temp;Humidity;BMP_temperature;BMP_pressure;BME280_temperature;BME280_humidity;BME280_pressure;Samples;Min_cycle;Max_cycle;Signal;HPM_P1;HPM_P2
2023/12/16 00:01:34;;;;;;;8.50;6.40;;;1.50;99.90;;;;;;5075412;28;20300;-78
2023/12/16 00:03:59;;;;;;;10.07;6.50;;;1.80;99.90;;;;;;5061581;28;20213;-77
2023/12/16 00:06:25;;;;;;;10.30;6.67;;;1.80;99.90;;;;;;5082087;28;20232;-79
2023/12/16 00:08:51;;;;;;;8.87;6.70;;;1.80;99.90;;;;;;5084612;28;20182;-80
2023/12/16 00:11:17;;;;;;;10.57;6.70;;;1.80;99.90;;;;;;5055742;28;20265;-79
2023/12/16 00:13:43;;;;;;;7.60;6.23;;;1.80;99.90;;;;;;5077896;28;20561;-78
2023/12/16 00:16:09;;;;;;;8.47;6.70;;;1.80;99.90;;;;;;5078866;28;20909;-76
2023/12/16 00:18:37;;;;;;;7.17;5.87;;;1.80;99.90;;;;;;5074492;28;20177;-76
2023/12/16 00:21:04;;;;;;;6.47;5.53;;;1.80;99.90;;;;;;5076811;28;20646;-76
2023/12/16 00:23:30;;;;;;;7.17;5.80;;;1.70;99.90;;;;;;5077008;28;20175;-77
2023/12/16 00:25:56;;;;;;;7.03;5.17;;;1.80;99.90;;;;;;5075879;28;20586;-80
2023/12/16 00:28:21;;;;;;;8.27;5.40;;;1.70;99.90;;;;;;5080709;28;20292;-76
2023/12/16 00:30:47;;;;;;;7.83;5.60;;;1.80;99.90;;;;;;5078877;28;20178;-77
2023/12/16 00:33:13;;;;;;;10.70;6.50;;;1.80;99.90;;;;;;5079853;28;20181;-76
2023/12/16 00:35:38;;;;;;;6.27;5.63;;;1.80;99.90;;;;;;5076572;28;20182;-78
2023/12/16 00:38:04;;;;;;;10.47;6.97;;;1.80;99.90;;;;;;5073439;28;20192;-77
2023/12/16 00:40:31;;;;;;;10.63;7.07;;;1.80;99.90;;;;;;5057659;28;20796;-80
2023/12/16 00:42:56;;;;;;;12.17;7.70;;;1.80;99.90;;;;;;5089456;28;20220;-78
2023/12/16 00:45:23;;;;;;;11.13;6.83;;;1.80;99.90;;;;;;5095057;28;20186;-77
2023/12/16 00:47:49;;;;;;;9.10;6.83;;;1.80;99.90;;;;;;5095992;28;20164;-79
2023/12/16 00:50:14;;;;;;;11.00;7.67;;;1.80;99.90;;;;;;5079929;28;20183;-77
2023/12/16 00:52:40;;;;;;;11.40;7.30;;;1.90;99.90;;;;;;5099129;28;20177;-79
2023/12/16 00:55:06;;;;;;;12.20;8.10;;;1.80;99.90;;;;;;5085100;28;20182;-78
2023/12/16 00:57:32;;;;;;;13.17;7.87;;;1.90;99.90;;;;;;5082545;28;20211;-79
2023/12/16 01:00:01;;;;;;;25.43;13.63;;;1.90;99.90;;;;;;5093713;28;20227;-79
2023/12/16 01:02:27;;;;;;;21.80;12.30;;;1.90;99.90;;;;;;5085284;28;20209;-77
2023/12/16 01:04:53;;;;;;;17.60;11.13;;;1.90;99.90;;;;;;5064714;28;20178;-78
2023/12/16 01:07:19;;;;;;;16.53;10.83;;;1.90;99.90;;;;;;5058847;28;20180;-79
2023/12/16 01:09:45;;;;;;;15.47;9.37;;;1.90;99.90;;;;;;5076898;28;20622;-78
2023/12/16 01:12:12;;;;;;;19.93;11.87;;;1.90;99.90;;;;;;5074858;28;20266;-77
2023/12/16 01:14:38;;;;;;;12.20;9.20;;;1.90;99.90;;;;;;5084948;28;20172;-79
2023/12/16 01:17:04;;;;;;;14.53;9.40;;;1.90;99.90;;;;;;5073461;28;20175;-77
2023/12/16 01:19:30;;;;;;;15.47;8.53;;;1.80;99.90;;;;;;5081129;28;20163;-80
2023/12/16 01:21:56;;;;;;;9.90;7.07;;;1.80;99.90;;;;;;5078119;28;20206;-79
2023/12/16 01:24:21;;;;;;;12.20;7.67;;;1.80;99.90;;;;;;5073309;28;20195;-77
2023/12/16 01:26:47;;;;;;;8.80;7.57;;;1.80;99.90;;;;;;5054770;28;20528;-78
2023/12/16 01:29:13;;;;;;;11.47;7.20;;;1.80;99.90;;;;;;5084046;28;20164;-77
2023/12/16 01:31:39;;;;;;;10.47;7.13;;;1.90;99.90;;;;;;5075392;28;20638;-79
2023/12/16 01:34:04;;;;;;;10.83;7.80;;;1.90;99.90;;;;;;5083061;28;20182;-77
2023/12/16 01:36:32;;;;;;;9.40;6.83;;;1.90;99.90;;;;;;5095241;28;20191;-78
2023/12/16 01:38:58;;;;;;;10.37;6.93;;;1.90;99.90;;;;;;5092481;28;20171;-76
2023/12/16 01:41:24;;;;;;;8.17;6.53;;;1.90;99.90;;;;;;5087533;28;20197;-78
2023/12/16 01:43:49;;;;;;;9.53;6.53;;;1.80;99.90;;;;;;5081265;28;20182;-79
2023/12/16 01:46:16;;;;;;;7.73;5.70;;;1.80;99.90;;;;;;5080648;28;20178;-78
2023/12/16 01:48:42;;;;;;;8.43;5.93;;;1.80;99.90;;;;;;5071927;28;20186;-79
2023/12/16 01:51:09;;;;;;;6.30;5.70;;;1.90;99.90;;;;;;5077282;28;20200;-75
2023/12/16 01:53:35;;;;;;;7.80;6.20;;;1.80;99.90;;;;;;5077467;28;20251;-76
2023/12/16 01:56:01;;;;;;;6.97;5.40;;;1.90;99.90;;;;;;5089507;28;20193;-77
2023/12/16 01:58:28;;;;;;;6.80;5.50;;;1.80;99.90;;;;;;5091695;28;20258;-78
2023/12/16 02:00:54;;;;;;;9.33;5.07;;;1.90;99.90;;;;;;5072055;28;20211;-75
2023/12/16 02:03:21;;;;;;;5.47;4.97;;;1.80;99.90;;;;;;5076591;28;20167;-79
2023/12/16 02:05:47;;;;;;;6.37;5.43;;;1.60;99.90;;;;;;5074068;28;20173;-78
2023/12/16 02:08:13;;;;;;;7.33;5.47;;;1.70;99.90;;;;;;5074164;28;20597;-77
2023/12/16 02:10:39;;;;;;;5.73;5.23;;;1.70;99.90;;;;;;5080808;28;20751;-78
2023/12/16 02:13:05;;;;;;;7.17;5.27;;;1.60;99.90;;;;;;5082352;28;20170;-80
2023/12/16 02:15:31;;;;;;;7.43;5.17;;;1.60;99.90;;;;;;5077969;28;20201;-76
2023/12/16 02:17:57;;;;;;;6.47;5.03;;;1.70;99.90;;;;;;5045578;28;20176;-81
2023/12/16 02:20:23;;;;;;;8.07;4.83;;;1.70;99.90;;;;;;5080726;28;20175;-76
2023/12/16 02:22:51;;;;;;;6.33;5.07;;;1.70;99.90;;;;;;5076493;28;20260;-77
2023/12/16 02:25:17;;;;;;;7.33;5.33;;;1.70;99.90;;;;;;5086275;28;20227;-82
2023/12/16 02:27:45;;;;;;;6.27;5.67;;;1.70;99.90;;;;;;5081131;28;20188;-80
2023/12/16 02:30:11;;;;;;;7.90;5.53;;;1.60;99.90;;;;;;5084481;28;20185;-81
2023/12/16 02:32:38;;;;;;;6.97;5.53;;;1.70;99.90;;;;;;5080986;28;20627;-79
2023/12/16 02:35:04;;;;;;;6.13;5.20;;;1.70;99.90;;;;;;5080097;28;20251;-75
2023/12/16 02:37:30;;;;;;;6.17;5.00;;;1.60;99.90;;;;;;5088974;28;20185;-79
2023/12/16 02:39:56;;;;;;;5.83;4.90;;;1.50;99.90;;;;;;5075588;28;20171;-79
2023/12/16 02:42:21;;;;;;;7.33;5.17;;;1.50;99.90;;;;;;5074414;28;20669;-80
2023/12/16 02:44:47;;;;;;;6.90;5.03;;;1.50;99.90;;;;;;5087372;28;20182;-80
2023/12/16 02:47:13;;;;;;;6.53;4.63;;;1.50;99.90;;;;;;5088332;28;20182;-79
2023/12/16 02:49:39;;;;;;;7.80;5.30;;;1.50;99.90;;;;;;5095339;28;20618;-78
2023/12/16 02:52:05;;;;;;;6.23;5.57;;;1.50;99.90;;;;;;5081740;28;20174;-79
2023/12/16 02:54:31;;;;;;;5.77;5.13;;;1.40;99.90;;;;;;5085015;28;20207;-79
2023/12/16 02:56:57;;;;;;;5.43;4.90;;;1.40;99.90;;;;;;5094062;28;20205;-79
2023/12/16 02:59:23;;;;;;;6.07;5.17;;;1.50;99.90;;;;;;5079962;28;20217;-77
2023/12/16 03:01:48;;;;;;;7.67;5.20;;;1.50;99.90;;;;;;5075519;28;20694;-79
2023/12/16 03:04:14;;;;;;;6.70;5.93;;;1.40;99.90;;;;;;5086016;28;20625;-78
2023/12/16 03:06:44;;;;;;;6.27;5.23;;;1.40;99.90;;;;;;5080809;28;20175;-79
2023/12/16 03:09:10;;;;;;;6.87;5.60;;;1.50;99.90;;;;;;5083826;28;20221;-77
2023/12/16 03:11:36;;;;;;;8.53;5.63;;;1.40;99.90;;;;;;5099710;28;20242;-77
2023/12/16 03:14:02;;;;;;;5.97;5.03;;;1.30;99.90;;;;;;5105124;28;20162;-77
2023/12/16 03:16:28;;;;;;;5.77;5.13;;;1.30;99.90;;;;;;5078055;28;20208;-77
2023/12/16 03:18:53;;;;;;;6.27;5.17;;;1.30;99.90;;;;;;5079131;28;20178;-79
2023/12/16 03:21:19;;;;;;;5.37;4.83;;;1.40;99.90;;;;;;5081548;28;20274;-80
2023/12/16 03:23:45;;;;;;;5.77;4.97;;;1.40;99.90;;;;;;5076405;28;20195;-78
2023/12/16 03:26:11;;;;;;;6.73;4.60;;;1.40;99.90;;;;;;5080427;28;20176;-76
2023/12/16 03:28:36;;;;;;;5.70;5.10;;;1.40;99.90;;;;;;5082397;28;20181;-79
2023/12/16 03:31:02;;;;;;;5.87;5.20;;;1.40;99.90;;;;;;5082436;28;20200;-78
2023/12/16 03:33:28;;;;;;;5.70;4.83;;;1.50;99.90;;;;;;5085538;28;20188;-77
2023/12/16 03:35:54;;;;;;;6.00;4.73;;;1.40;99.90;;;;;;5081016;28;20231;-76
2023/12/16 03:38:19;;;;;;;5.70;5.17;;;1.50;99.90;;;;;;5059015;28;20188;-77
2023/12/16 03:40:45;;;;;;;6.07;5.10;;;1.40;99.90;;;;;;5075415;28;20202;-77
2023/12/16 03:43:11;;;;;;;6.87;4.90;;;1.30;99.90;;;;;;5081081;28;20174;-78
2023/12/16 03:45:37;;;;;;;5.83;5.00;;;1.40;99.90;;;;;;5081596;28;20171;-77
2023/12/16 03:48:03;;;;;;;8.37;5.30;;;1.50;99.90;;;;;;5078484;28;20265;-75
2023/12/16 03:50:29;;;;;;;7.83;5.47;;;1.50;99.90;;;;;;5101231;28;20147;-81
2023/12/16 03:52:55;;;;;;;9.90;6.10;;;1.50;99.90;;;;;;5085222;28;20643;-77
2023/12/16 03:55:20;;;;;;;5.33;4.77;;;1.50;99.90;;;;;;5059905;28;20244;-80
2023/12/16 03:57:46;;;;;;;6.30;5.27;;;1.50;99.90;;;;;;5075575;28;20182;-80
2023/12/16 04:00:12;;;;;;;9.33;5.07;;;1.40;99.90;;;;;;5075935;28;20186;-78
2023/12/16 04:02:38;;;;;;;7.93;5.40;;;1.50;99.90;;;;;;5077597;28;20345;-78
2023/12/16 04:05:04;;;;;;;7.37;5.23;;;1.40;99.90;;;;;;5081736;28;20264;-78
2023/12/16 04:07:30;;;;;;;6.50;5.30;;;1.30;99.90;;;;;;5081385;28;20257;-80
2023/12/16 04:09:55;;;;;;;7.00;4.83;;;1.30;99.90;;;;;;5080007;28;20223;-79
2023/12/16 04:12:21;;;;;;;8.70;4.80;;;1.40;99.90;;;;;;5078688;28;20672;-81
2023/12/16 04:14:47;;;;;;;5.20;4.33;;;1.50;99.90;;;;;;5076096;28;20175;-79
2023/12/16 04:17:13;;;;;;;4.93;4.27;;;1.50;99.90;;;;;;5080905;28;20193;-80
2023/12/16 04:19:48;;;;;;;4.67;4.23;;;1.50;99.90;;;;;;5078420;28;20612;-80
2023/12/16 04:22:13;;;;;;;5.20;4.67;;;1.50;99.90;;;;;;5058193;28;20212;-79
2023/12/16 04:24:39;;;;;;;5.27;4.73;;;1.60;99.90;;;;;;5076220;28;20169;-80
2023/12/16 04:27:05;;;;;;;6.67;4.37;;;1.60;99.90;;;;;;5066473;28;20260;-80
2023/12/16 04:29:31;;;;;;;4.80;4.27;;;1.50;99.90;;;;;;5060340;28;20271;-81
2023/12/16 04:31:56;;;;;;;5.33;4.03;;;1.50;99.90;;;;;;5077363;28;20562;-81
2023/12/16 04:34:22;;;;;;;8.43;4.53;;;1.50;99.90;;;;;;5081094;28;20653;-80
2023/12/16 04:36:48;;;;;;;4.87;4.30;;;1.50;99.90;;;;;;5061638;28;20195;-81
2023/12/16 04:39:14;;;;;;;5.10;4.47;;;1.40;99.90;;;;;;5079859;28;20205;-78
2023/12/16 04:41:39;;;;;;;5.20;4.50;;;1.50;99.90;;;;;;5081618;28;20335;-78
2023/12/16 04:44:05;;;;;;;5.03;4.10;;;1.60;99.90;;;;;;5057535;28;20714;-79
2023/12/16 04:46:31;;;;;;;5.60;4.50;;;1.50;99.90;;;;;;5079457;28;20190;-81
2023/12/16 04:48:57;;;;;;;6.37;4.17;;;1.60;99.90;;;;;;5078614;28;20178;-80
2023/12/16 04:51:22;;;;;;;6.07;4.47;;;1.60;99.90;;;;;;5076524;28;20189;-78
2023/12/16 04:53:48;;;;;;;5.17;4.67;;;1.60;99.90;;;;;;5057735;28;20185;-78
2023/12/16 04:56:14;;;;;;;5.00;4.50;;;1.70;99.90;;;;;;5073109;28;20261;-80
2023/12/16 04:58:40;;;;;;;4.93;4.50;;;1.70;99.90;;;;;;5088479;28;20169;-78
2023/12/16 05:01:06;;;;;;;6.67;4.13;;;1.60;99.90;;;;;;5083533;28;20343;-79
2023/12/16 05:03:32;;;;;;;6.33;4.73;;;1.70;99.90;;;;;;5066806;28;20170;-79
2023/12/16 05:05:58;;;;;;;4.93;4.17;;;1.60;99.90;;;;;;5084552;28;20177;-77
2023/12/16 05:08:24;;;;;;;4.87;4.37;;;1.60;99.90;;;;;;5076018;28;20201;-77
2023/12/16 05:10:50;;;;;;;5.23;4.73;;;1.60;99.90;;;;;;5078687;28;20667;-80
2023/12/16 05:13:15;;;;;;;8.23;5.07;;;1.70;99.90;;;;;;5076881;28;20242;-80
2023/12/16 05:15:41;;;;;;;6.23;4.03;;;1.70;99.90;;;;;;5077338;28;20347;-76
2023/12/16 05:18:08;;;;;;;5.73;4.53;;;1.70;99.90;;;;;;5079928;28;20179;-77
2023/12/16 05:20:34;;;;;;;5.23;4.50;;;1.60;99.90;;;;;;5081557;28;20177;-78
2023/12/16 05:23:00;;;;;;;4.97;4.57;;;1.70;99.90;;;;;;5072480;28;20528;-80
2023/12/16 05:25:30;;;;;;;7.73;4.80;;;1.70;99.90;;;;;;5076652;28;20572;-80
2023/12/16 05:27:57;;;;;;;8.30;5.07;;;1.60;99.90;;;;;;5066038;28;20205;-80
2023/12/16 05:30:23;;;;;;;5.43;4.93;;;1.60;99.90;;;;;;5083735;28;20539;-78
2023/12/16 05:32:49;;;;;;;6.27;5.17;;;1.70;99.90;;;;;;5083789;28;20199;-79
2023/12/16 05:35:15;;;;;;;5.90;5.07;;;1.70;99.90;;;;;;5088505;28;20182;-78
2023/12/16 05:37:41;;;;;;;5.27;4.47;;;1.70;99.90;;;;;;5073749;28;20185;-78
2023/12/16 05:40:08;;;;;;;4.47;4.07;;;1.70;99.90;;;;;;5087998;28;20183;-78
2023/12/16 05:42:35;;;;;;;5.20;4.70;;;1.70;99.90;;;;;;5070035;28;20214;-78
2023/12/16 05:45:01;;;;;;;5.63;4.73;;;1.70;99.90;;;;;;5093382;28;20165;-78
2023/12/16 05:47:27;;;;;;;4.67;4.27;;;1.70;99.90;;;;;;5099971;28;20276;-76
2023/12/16 05:49:52;;;;;;;4.70;4.20;;;1.70;99.90;;;;;;5086680;28;20186;-79
2023/12/16 05:52:18;;;;;;;4.50;4.10;;;1.80;99.90;;;;;;5093720;28;20206;-79
2023/12/16 05:54:44;;;;;;;6.43;5.27;;;1.70;99.90;;;;;;5078701;28;20180;-80
2023/12/16 05:57:10;;;;;;;4.93;4.43;;;1.80;99.90;;;;;;5097662;28;20246;-79
2023/12/16 05:59:35;;;;;;;5.27;3.67;;;1.80;99.90;;;;;;5096464;28;20174;-77
2023/12/16 06:02:01;;;;;;;5.77;4.10;;;1.90;99.90;;;;;;5096096;28;20230;-78
2023/12/16 06:04:27;;;;;;;6.97;4.10;;;1.90;99.90;;;;;;5077945;28;20212;-78
2023/12/16 06:06:53;;;;;;;4.40;4.00;;;1.70;99.90;;;;;;5096130;28;20183;-79
2023/12/16 06:09:19;;;;;;;4.57;3.97;;;1.60;99.90;;;;;;5086701;28;20245;-77
2023/12/16 06:11:44;;;;;;;4.00;3.60;;;1.60;99.90;;;;;;5105784;28;20695;-76
2023/12/16 06:14:10;;;;;;;5.50;3.97;;;1.60;99.90;;;;;;5108589;28;20179;-78
2023/12/16 06:16:36;;;;;;;3.93;3.63;;;1.60;99.90;;;;;;5114118;28;20186;-77
2023/12/16 06:19:03;;;;;;;5.87;4.33;;;1.60;99.90;;;;;;5117481;28;20206;-77
2023/12/16 06:21:32;;;;;;;5.63;4.60;;;1.60;99.90;;;;;;5115997;28;20643;-79
2023/12/16 06:23:58;;;;;;;7.57;6.17;;;1.70;99.90;;;;;;5116288;28;20242;-80
2023/12/16 06:26:24;;;;;;;4.93;4.43;;;1.80;99.90;;;;;;5116335;28;20731;-78
2023/12/16 06:28:50;;;;;;;4.07;3.67;;;1.80;99.90;;;;;;5116601;28;20176;-77
2023/12/16 06:31:16;;;;;;;4.50;4.10;;;1.90;99.90;;;;;;5118014;28;20262;-78
2023/12/16 06:33:42;;;;;;;3.70;3.40;;;1.80;99.90;;;;;;5114960;28;20177;-78
2023/12/16 06:36:08;;;;;;;3.97;3.67;;;1.80;99.90;;;;;;5110808;28;20549;-79
2023/12/16 06:38:34;;;;;;;4.50;4.10;;;1.80;99.90;;;;;;5105915;28;20649;-78
2023/12/16 06:41:03;;;;;;;4.90;4.20;;;1.90;99.90;;;;;;5100949;28;20215;-77
2023/12/16 06:43:29;;;;;;;5.07;4.30;;;2.00;99.90;;;;;;5098002;28;20209;-79
2023/12/16 06:45:55;;;;;;;4.97;4.47;;;2.00;99.90;;;;;;5095724;28;20178;-79
2023/12/16 06:48:21;;;;;;;5.33;4.37;;;2.00;99.90;;;;;;5106998;28;20205;-78
2023/12/16 06:50:49;;;;;;;4.43;4.03;;;2.10;99.90;;;;;;5105054;28;20531;-80
2023/12/16 06:53:18;;;;;;;5.80;3.93;;;2.10;99.90;;;;;;5104502;28;20185;-79
2023/12/16 06:55:44;;;;;;;5.40;4.50;;;2.20;99.90;;;;;;5108217;28;20168;-77
2023/12/16 06:58:10;;;;;;;5.20;4.13;;;2.10;99.90;;;;;;5105481;28;20178;-77
2023/12/16 07:00:36;;;;;;;5.13;4.07;;;2.20;99.90;;;;;;5105518;28;20311;-77
2023/12/16 07:03:01;;;;;;;5.43;4.70;;;2.20;99.90;;;;;;5105483;28;20658;-77
2023/12/16 07:05:32;;;;;;;6.03;4.10;;;2.20;99.90;;;;;;5118948;28;20175;-78
2023/12/16 07:07:58;;;;;;;5.40;4.90;;;2.20;99.90;;;;;;5106877;28;20159;-78
2023/12/16 07:10:24;;;;;;;4.90;4.40;;;2.20;99.90;;;;;;5087706;28;20217;-77
2023/12/16 07:12:51;;;;;;;5.87;4.63;;;2.20;99.90;;;;;;5082591;28;20965;-77
2023/12/16 07:15:17;;;;;;;8.77;5.10;;;2.30;99.90;;;;;;5077113;28;20170;-79
2023/12/16 07:17:44;;;;;;;7.23;4.90;;;2.30;99.90;;;;;;5074993;28;20173;-80
2023/12/16 07:20:10;;;;;;;5.87;5.23;;;2.30;99.90;;;;;;5075000;28;20648;-80
2023/12/16 07:22:35;;;;;;;7.90;5.23;;;2.30;99.90;;;;;;5079975;28;20249;-80
2023/12/16 07:25:01;;;;;;;6.07;5.17;;;2.40;99.90;;;;;;5075061;28;20172;-78
2023/12/16 07:27:27;;;;;;;8.90;5.30;;;2.40;99.90;;;;;;5075182;28;20627;-82
2023/12/16 07:29:53;;;;;;;5.93;5.10;;;2.40;99.90;;;;;;5074890;28;20254;-79
2023/12/16 07:32:19;;;;;;;5.20;4.70;;;2.40;99.90;;;;;;5076138;28;20189;-77
2023/12/16 07:34:48;;;;;;;9.33;5.30;;;2.40;99.90;;;;;;5077643;28;20175;-77
2023/12/16 07:37:13;;;;;;;5.27;4.77;;;2.40;99.90;;;;;;5082358;28;20659;-78
2023/12/16 07:39:39;;;;;;;6.93;5.30;;;2.50;99.90;;;;;;5087196;28;20184;-76
2023/12/16 07:42:05;;;;;;;7.03;5.33;;;2.60;99.90;;;;;;5107742;28;20253;-80
2023/12/16 07:44:31;;;;;;;6.03;5.13;;;2.60;99.90;;;;;;5088038;28;20195;-81
2023/12/16 07:46:57;;;;;;;8.00;5.37;;;2.60;99.90;;;;;;5079945;28;20170;-81
2023/12/16 07:49:25;;;;;;;9.93;5.53;;;2.70;99.90;;;;;;5066766;28;20220;-79
2023/12/16 07:51:54;;;;;;;20.73;9.17;;;2.80;99.90;;;;;;5082989;28;20175;-76
2023/12/16 07:54:27;;;;;;;26.97;10.20;;;2.70;99.90;;;;;;5085660;28;20173;-76
2023/12/16 07:56:53;;;;;;;11.03;6.30;;;2.80;99.90;;;;;;5088805;28;20179;-79
2023/12/16 07:59:19;;;;;;;8.13;5.03;;;2.80;99.90;;;;;;5075984;28;20227;-80
2023/12/16 08:01:50;;;;;;;6.50;4.80;;;2.80;99.90;;;;;;5087119;28;20259;-78
2023/12/16 08:04:17;;;;;;;5.43;4.90;;;2.80;99.90;;;;;;5103068;28;20188;-76
2023/12/16 08:06:42;;;;;;;5.33;4.17;;;2.80;99.90;;;;;;5102887;28;20198;-78
2023/12/16 08:09:09;;;;;;;5.53;4.87;;;2.90;99.90;;;;;;5099737;28;20247;-82
2023/12/16 08:11:34;;;;;;;7.20;5.27;;;2.80;99.90;;;;;;5083391;28;20199;-80
2023/12/16 08:14:00;;;;;;;7.50;5.13;;;2.80;99.90;;;;;;5079887;28;20185;-79
2023/12/16 08:16:26;;;;;;;7.60;6.13;;;2.70;99.90;;;;;;5082044;28;20178;-77
2023/12/16 08:18:52;;;;;;;9.87;6.77;;;2.70;99.90;;;;;;5082630;28;20501;-77
2023/12/16 08:21:18;;;;;;;9.97;7.20;;;2.80;99.90;;;;;;5082449;28;20288;-78
2023/12/16 08:23:44;;;;;;;13.37;6.93;;;2.90;99.90;;;;;;5084175;28;20254;-77
2023/12/16 08:26:10;;;;;;;11.13;7.10;;;2.90;99.90;;;;;;5082329;28;20184;-79
2023/12/16 08:28:41;;;;;;;9.97;7.70;;;2.90;99.90;;;;;;5084047;28;20187;-80
2023/12/16 08:31:07;;;;;;;14.80;8.47;;;3.20;99.90;;;;;;5082319;28;20172;-78
2023/12/16 08:33:34;;;;;;;12.17;8.47;;;3.30;99.90;;;;;;5083408;28;20185;-80
2023/12/16 08:36:00;;;;;;;10.03;7.90;;;3.10;99.90;;;;;;5081933;28;20834;-79
2023/12/16 08:38:26;;;;;;;10.27;8.03;;;3.00;99.90;;;;;;5081223;28;20175;-76
2023/12/16 08:40:54;;;;;;;11.10;7.53;;;2.90;99.90;;;;;;5082159;28;20297;-78
2023/12/16 08:43:20;;;;;;;7.87;6.63;;;2.70;99.90;;;;;;5073246;28;20529;-76
2023/12/16 08:45:45;;;;;;;8.10;6.80;;;2.50;99.90;;;;;;5087077;28;20197;-76
2023/12/16 08:48:11;;;;;;;10.63;7.57;;;2.60;99.90;;;;;;5079579;28;20173;-78
2023/12/16 08:50:37;;;;;;;8.77;6.80;;;2.60;99.90;;;;;;5075091;28;20534;-77
2023/12/16 08:53:03;;;;;;;9.20;7.60;;;2.70;99.90;;;;;;5081453;28;20195;-78
2023/12/16 08:55:28;;;;;;;14.40;7.80;;;2.90;99.90;;;;;;5089479;28;20215;-76
2023/12/16 08:57:54;;;;;;;8.07;6.83;;;3.20;99.90;;;;;;5088508;28;20185;-78
2023/12/16 09:00:20;;;;;;;11.43;7.07;;;3.30;99.90;;;;;;5089356;28;20519;-79
2023/12/16 09:02:47;;;;;;;10.10;7.60;;;3.20;99.90;;;;;;5072655;28;20745;-78
2023/12/16 09:05:13;;;;;;;10.30;7.10;;;3.00;99.90;;;;;;5073360;28;20223;-78
2023/12/16 09:07:39;;;;;;;16.07;7.90;;;2.80;99.90;;;;;;5077023;28;20180;-76
2023/12/16 09:10:05;;;;;;;8.23;7.43;;;2.90;99.90;;;;;;5095853;28;20225;-78
2023/12/16 09:12:31;;;;;;;9.47;7.30;;;2.90;99.90;;;;;;5084643;28;20176;-81
2023/12/16 09:14:57;;;;;;;9.53;7.27;;;2.80;99.90;;;;;;5082170;28;20170;-79
2023/12/16 09:17:23;;;;;;;10.47;7.57;;;2.60;99.90;;;;;;5083523;28;20261;-80
2023/12/16 09:19:48;;;;;;;9.93;7.60;;;2.50;99.90;;;;;;5075492;28;20261;-77
2023/12/16 09:22:16;;;;;;;11.83;8.27;;;2.50;99.90;;;;;;5076353;28;20249;-79
2023/12/16 09:24:42;;;;;;;12.23;8.67;;;2.60;99.90;;;;;;5082665;28;20175;-78
2023/12/16 09:27:08;;;;;;;11.33;8.20;;;2.70;99.90;;;;;;5086935;28;20188;-79
2023/12/16 09:29:33;;;;;;;10.80;8.37;;;2.70;99.90;;;;;;5089267;28;20180;-77
2023/12/16 09:31:59;;;;;;;15.57;9.93;;;2.70;99.90;;;;;;5098033;28;20284;-81
2023/12/16 09:34:25;;;;;;;12.67;9.63;;;2.70;99.90;;;;;;5098095;28;20808;-77
2023/12/16 09:36:51;;;;;;;12.27;9.40;;;2.70;99.90;;;;;;5106504;28;20183;-77
2023/12/16 09:39:16;;;;;;;14.60;9.87;;;2.60;99.90;;;;;;5107845;28;20171;-78
2023/12/16 09:41:44;;;;;;;14.93;9.97;;;2.70;99.90;;;;;;5107198;28;20196;-78
2023/12/16 09:44:15;;;;;;;21.70;10.70;;;2.90;99.90;;;;;;5102158;28;20169;-79
2023/12/16 09:46:41;;;;;;;12.63;8.50;;;3.00;99.90;;;;;;5084317;28;20186;-76
2023/12/16 09:49:07;;;;;;;11.87;8.83;;;3.20;99.90;;;;;;5058841;28;20538;-80
2023/12/16 09:51:32;;;;;;;17.70;10.97;;;3.30;99.90;;;;;;5075624;28;20203;-78
2023/12/16 09:53:58;;;;;;;27.17;15.93;;;3.30;99.90;;;;;;5076991;28;20186;-78
2023/12/16 09:56:27;;;;;;;14.37;9.37;;;3.40;99.90;;;;;;5076617;28;20328;-78
2023/12/16 09:58:55;;;;;;;13.20;8.40;;;3.50;99.90;;;;;;5076911;28;20182;-78
2023/12/16 10:01:20;;;;;;;11.73;8.70;;;3.50;99.90;;;;;;5058572;28;20285;-77
2023/12/16 10:03:47;;;;;;;10.33;8.23;;;3.60;99.90;;;;;;5058859;28;20221;-77
2023/12/16 10:06:15;;;;;;;12.53;8.73;;;3.70;99.90;;;;;;5058616;28;20179;-78
2023/12/16 10:08:41;;;;;;;9.97;7.70;;;3.80;99.90;;;;;;5076434;28;20282;-77
2023/12/16 10:11:07;;;;;;;16.23;8.50;;;3.90;99.90;;;;;;5076688;28;20246;-77
2023/12/16 10:13:53;;;;;;;12.10;8.40;;;4.10;99.90;;;;;;5081624;28;20181;-77
2023/12/16 10:16:21;;;;;;;14.57;7.77;;;4.10;99.90;;;;;;5078484;28;20170;-79
2023/12/16 10:18:52;;;;;;;13.97;7.93;;;4.20;99.90;;;;;;5089313;28;20248;-76
2023/12/16 10:21:23;;;;;;;12.10;8.33;;;4.30;99.90;;;;;;5096163;28;20285;-78
2023/12/16 10:23:49;;;;;;;13.30;8.47;;;4.40;99.90;;;;;;5096118;28;20195;-78
2023/12/16 10:26:16;;;;;;;12.10;8.60;;;4.40;99.90;;;;;;5078013;28;20240;-77
2023/12/16 10:28:46;;;;;;;11.33;8.00;;;4.40;99.90;;;;;;5101180;28;20175;-76
2023/12/16 10:31:13;;;;;;;10.00;7.57;;;4.20;99.90;;;;;;5111224;28;20170;-77
2023/12/16 10:33:39;;;;;;;10.30;8.17;;;4.20;99.90;;;;;;5109692;28;20223;-75
2023/12/16 10:36:05;;;;;;;12.00;7.87;;;4.30;99.90;;;;;;5103519;28;20245;-75
2023/12/16 10:38:31;;;;;;;12.73;7.67;;;4.40;99.90;;;;;;5096164;28;20265;-76
2023/12/16 10:40:57;;;;;;;8.80;7.00;;;4.40;99.90;;;;;;5095940;28;20377;-77
2023/12/16 10:43:23;;;;;;;8.07;7.27;;;4.50;99.90;;;;;;5096005;28;20174;-78
2023/12/16 10:45:50;;;;;;;8.07;7.10;;;4.60;99.90;;;;;;5096009;28;20626;-79
2023/12/16 10:48:20;;;;;;;9.00;6.60;;;4.60;99.90;;;;;;5096200;28;20181;-79
2023/12/16 10:50:47;;;;;;;6.90;6.20;;;4.60;99.90;;;;;;5095191;28;20172;-79
2023/12/16 10:53:25;;;;;;;8.07;6.67;;;4.70;99.90;;;;;;5096277;28;20177;-79
2023/12/16 10:55:58;;;;;;;7.10;6.30;;;4.80;99.90;;;;;;5095367;28;20168;-78
2023/12/16 10:58:42;;;;;;;8.50;6.23;;;4.90;99.90;;;;;;5085798;28;20180;-78
2023/12/16 11:01:20;;;;;;;7.27;6.57;;;5.00;99.90;;;;;;5085780;28;20297;-78
2023/12/16 11:04:09;;;;;;;6.57;5.80;;;5.00;99.90;;;;;;5085829;28;20221;-80
2023/12/16 11:07:02;;;;;;;8.27;5.90;;;5.10;99.90;;;;;;5052518;28;20648;-80
2023/12/16 11:09:28;;;;;;;7.50;6.33;;;5.10;99.90;;;;;;5084791;28;20301;-79
2023/12/16 11:11:56;;;;;;;6.10;5.37;;;5.20;99.90;;;;;;5083563;28;20218;-77
2023/12/16 11:14:23;;;;;;;6.53;5.87;;;5.20;99.90;;;;;;5084450;28;20203;-75
2023/12/16 11:17:01;;;;;;;8.10;6.70;;;5.30;99.90;;;;;;5100831;28;20174;-79
2023/12/16 11:19:33;;;;;;;23.40;13.90;;;5.30;99.90;;;;;;5088796;28;20160;-79
2023/12/16 11:22:00;;;;;;;18.03;11.40;;;5.40;99.90;;;;;;5083087;28;20217;-80
2023/12/16 11:24:26;;;;;;;12.37;8.53;;;5.40;99.90;;;;;;5085072;28;20170;-78
2023/12/16 11:26:55;;;;;;;10.30;7.37;;;5.40;99.90;;;;;;5082757;28;20606;-78
2023/12/16 11:29:24;;;;;;;8.90;6.80;;;5.50;99.90;;;;;;5088936;28;20221;-78
2023/12/16 11:31:54;;;;;;;8.87;6.67;;;5.40;99.90;;;;;;5095576;28;20527;-75
2023/12/16 11:34:38;;;;;;;8.67;6.63;;;5.60;99.90;;;;;;5092374;28;20281;-77
2023/12/16 11:37:04;;;;;;;6.97;6.13;;;5.60;99.90;;;;;;5086089;28;20170;-77
2023/12/16 11:39:38;;;;;;;6.63;6.00;;;5.70;99.90;;;;;;5106142;28;20207;-78
2023/12/16 11:42:05;;;;;;;8.70;5.90;;;5.70;99.90;;;;;;5095167;28;20284;-77
2023/12/16 11:44:53;;;;;;;6.30;5.40;;;5.80;99.90;;;;;;5068232;28;20181;-81
2023/12/16 11:47:25;;;;;;;6.40;5.23;;;5.90;99.90;;;;;;5080015;28;20641;-78
2023/12/16 11:49:52;;;;;;;6.93;5.30;;;5.90;99.90;;;;;;5083728;28;20179;-78
2023/12/16 11:52:24;;;;;;;6.83;5.53;;;5.90;99.90;;;;;;5083908;28;20562;-77
2023/12/16 11:54:53;;;;;;;5.70;4.83;;;5.90;99.90;;;;;;5085869;28;20183;-76
2023/12/16 11:57:20;;;;;;;11.13;5.13;;;6.00;99.90;;;;;;5083671;28;20179;-76
2023/12/16 11:59:47;;;;;;;7.77;5.13;;;6.00;99.90;;;;;;5067084;28;20174;-79
2023/12/16 12:02:14;;;;;;;6.07;4.93;;;6.00;99.90;;;;;;5084157;28;20562;-74
2023/12/16 12:04:41;;;;;;;5.60;5.10;;;6.00;99.90;;;;;;5061843;28;20178;-75
2023/12/16 12:07:07;;;;;;;6.03;5.10;;;6.10;99.90;;;;;;5076654;28;20178;-77
2023/12/16 12:09:33;;;;;;;5.60;4.70;;;6.10;99.90;;;;;;5078088;28;20732;-77
2023/12/16 12:12:01;;;;;;;5.60;4.13;;;6.10;99.90;;;;;;5083430;28;20254;-76
2023/12/16 12:14:27;;;;;;;3.83;3.53;;;6.20;99.90;;;;;;5082781;28;20166;-78
2023/12/16 12:16:53;;;;;;;4.13;3.83;;;6.20;99.90;;;;;;5074453;28;20176;-79
2023/12/16 12:19:19;;;;;;;7.23;4.33;;;6.30;99.90;;;;;;5081749;28;20175;-78
2023/12/16 12:21:45;;;;;;;5.97;4.87;;;6.40;99.90;;;;;;5081145;28;20262;-78
2023/12/16 12:24:10;;;;;;;4.83;4.33;;;6.40;99.90;;;;;;5075387;28;20169;-78
2023/12/16 12:26:36;;;;;;;6.60;4.27;;;6.40;99.90;;;;;;5073780;28;20204;-77
2023/12/16 12:29:02;;;;;;;6.27;4.43;;;6.40;99.90;;;;;;5073760;28;20254;-79
2023/12/16 12:31:29;;;;;;;4.20;3.80;;;6.40;99.90;;;;;;5073274;28;20628;-78
2023/12/16 12:33:55;;;;;;;4.70;3.23;;;6.30;99.90;;;;;;5073758;28;20173;-78
2023/12/16 12:36:21;;;;;;;3.93;3.60;;;6.30;99.90;;;;;;5073795;28;20179;-77
2023/12/16 12:38:54;;;;;;;3.50;3.20;;;6.30;99.90;;;;;;5072913;28;20229;-78
2023/12/16 12:41:20;;;;;;;4.07;3.70;;;6.40;99.90;;;;;;5073457;28;20210;-78
2023/12/16 12:43:45;;;;;;;4.67;3.40;;;6.30;99.90;;;;;;5074332;28;20247;-80
2023/12/16 12:46:16;;;;;;;4.93;4.03;;;6.40;99.90;;;;;;5073593;28;20177;-80
2023/12/16 12:48:54;;;;;;;5.43;4.13;;;6.30;99.90;;;;;;5074773;28;20176;-75
2023/12/16 12:51:20;;;;;;;4.30;3.90;;;6.40;99.90;;;;;;5087268;28;20180;-78
2023/12/16 12:53:57;;;;;;;5.97;4.10;;;6.40;99.90;;;;;;5099100;28;20183;-76